Time;durP1;ratioP1;P1;durP2;ratioP2;P2;SDS_P1;SDS_P2;PMS_P1;PMS_P2;Temp;Humidity;BMP_temperature;BMP_pressure;BME280_temperature;BME280_humidity;BME280_pressure;Samples;Min_cycle;Max_cycle;Signal;HPM_P1;HPM_P2
2024/03/01 00:00:35;;;;;;;37.70;24.50;;;;;;;10.75;52.18;100327.52;104669;1254;73366;-69
2024/03/01 00:03:54;;;;;;;35.30;23.20;;;;;;;10.63;52.89;100320.19;104838;1258;60778;-68
2024/03/01 00:07:14;;;;;;;34.20;22.50;;;;;;;10.61;53.11;100321.11;104988;1257;59566;-67
2024/03/01 00:10:33;;;;;;;36.90;22.60;;;;;;;10.45;53.27;100321.63;104738;1258;73277;-69
2024/03/01 00:13:53;;;;;;;32.60;21.60;;;;;;;10.11;55.44;100332.27;104855;1260;69483;-70
2024/03/01 00:17:18;;;;;;;33.40;22.10;;;;;;;10.62;53.67;100328.30;105057;1260;72924;-68
2024/03/01 00:20:37;;;;;;;37.40;21.80;;;;;;;10.73;52.74;100330.02;104659;1259;64349;-69
2024/03/01 00:23:49;;;;;;;31.60;21.00;;;;;;;10.91;52.24;100332.60;104899;1260;60721;-69
2024/03/01 00:27:08;;;;;;;38.80;24.20;;;;;;;10.94;51.36;100329.16;104781;1260;72708;-69
2024/03/01 00:30:27;;;;;;;46.90;29.30;;;;;;;10.73;51.36;100330.38;108386;1253;70935;-68
2024/03/01 00:33:46;;;;;;;46.60;29.00;;;;;;;10.24;52.51;100332.59;108250;1254;73340;-68
2024/03/01 00:37:05;;;;;;;46.30;29.20;;;;;;;10.01;53.66;100328.02;108323;1254;60569;-65
2024/03/01 00:40:24;;;;;;;47.30;27.80;;;;;;;10.02;54.08;100326.77;108349;1254;60691;-67
2024/03/01 00:43:43;;;;;;;45.90;28.20;;;;;;;10.09;54.40;100328.64;108372;1256;73217;-68
2024/03/01 00:47:06;;;;;;;43.60;26.90;;;;;;;10.00;54.87;100324.72;108283;1252;69197;-68
2024/03/01 00:50:23;;;;;;;49.70;28.20;;;;;;;10.06;54.51;100308.25;108355;1254;73493;-68
2024/03/01 00:53:44;;;;;;;42.60;26.80;;;;;;;10.61;53.28;100320.60;108271;1255;62111;-69
2024/03/01 00:57:02;;;;;;;43.70;27.20;;;;;;;10.85;52.18;100315.78;108045;1253;61742;-68
2024/03/01 01:00:23;;;;;;;44.20;27.30;;;;;;;10.82;51.89;100312.90;108289;1253;72906;-68
2024/03/01 01:03:41;;;;;;;42.90;26.10;;;;;;;10.74;51.84;100312.45;108349;1253;69327;-68
2024/03/01 01:06:16;;;;;;;41.00;25.50;;;;;;;10.56;52.49;100310.41;108163;1254;71788;-68
2024/03/01 01:09:18;;;;;;;39.70;24.60;;;;;;;10.56;52.62;100306.40;108205;1253;60430;-69
2024/03/01 01:12:32;;;;;;;37.20;24.60;;;;;;;10.56;52.80;100302.90;108360;1253;58698;-69
2024/03/01 01:15:50;;;;;;;38.60;23.80;;;;;;;10.72;52.03;100296.56;108063;1254;71627;-69
2024/03/01 01:18:41;;;;;;;37.20;23.50;;;;;;;10.52;52.15;100296.69;108340;1251;68384;-69
2024/03/01 01:21:18;;;;;;;35.80;23.80;;;;;;;10.51;52.39;100293.75;108206;1254;71719;-69
2024/03/01 01:24:30;;;;;;;40.90;25.00;;;;;;;10.69;51.66;100293.17;108216;1254;60589;-69
2024/03/01 01:27:48;;;;;;;32.90;22.90;;;;;;;10.72;51.67;100289.05;108243;1258;59768;-68
2024/03/01 01:31:08;;;;;;;45.10;25.50;;;;;;;10.20;52.76;100299.60;108408;1254;74020;-69
2024/03/01 01:34:26;;;;;;;37.80;25.40;;;;;;;10.06;53.74;100298.98;108340;1254;69090;-68
2024/03/01 01:37:46;;;;;;;43.30;26.80;;;;;;;10.12;53.95;100297.40;108356;1254;72345;-68
2024/03/01 01:41:05;;;;;;;39.60;25.60;;;;;;;10.02;54.53;100293.85;108333;1253;60035;-69
2024/03/01 01:44:24;;;;;;;45.90;25.70;;;;;;;9.94;54.55;100297.56;108098;1254;59742;-70
2024/03/01 01:47:44;;;;;;;41.30;26.60;;;;;;;10.02;54.41;100295.23;108344;1256;73086;-70
2024/03/01 01:51:03;;;;;;;46.40;28.20;;;;;;;10.18;54.16;100292.29;108324;1253;70971;-69
2024/03/01 01:54:22;;;;;;;48.30;27.40;;;;;;;10.03;54.35;100292.39;108399;1254;72506;-70
2024/03/01 01:57:40;;;;;;;40.30;27.00;;;;;;;10.00;54.11;100286.38;108323;1254;60659;-70
2024/03/01 02:00:40;;;;;;;45.20;29.00;;;;;;;9.93;54.25;100278.52;108313;1253;58744;-69
2024/03/01 02:03:55;;;;;;;65.20;35.40;;;;;;;9.91;54.59;100271.75;108284;1254;76294;-70
2024/03/01 02:07:14;;;;;;;55.90;35.30;;;;;;;10.02;54.79;100282.98;108000;1254;69365;-69
2024/03/01 02:10:34;;;;;;;58.10;33.00;;;;;;;10.00;55.05;100274.80;108360;1254;73178;-69
2024/03/01 02:13:51;;;;;;;51.90;31.00;;;;;;;10.14;54.69;100270.52;108018;1254;60601;-70
2024/03/01 02:17:11;;;;;;;48.60;31.10;;;;;;;10.06;54.18;100279.36;108358;1253;60094;-70
2024/03/01 02:19:58;;;;;;;50.50;31.60;;;;;;;9.61;56.07;100280.69;108320;1251;73657;-69
2024/03/01 02:23:11;;;;;;;58.40;33.60;;;;;;;9.50;56.49;100280.47;108285;1251;69306;-70
2024/03/01 02:26:30;;;;;;;56.50;33.10;;;;;;;9.74;56.27;100276.30;108394;1254;72347;-69
2024/03/01 02:29:50;;;;;;;57.20;34.40;;;;;;;9.88;55.35;100271.48;108117;1258;60798;-70
2024/03/01 02:33:09;;;;;;;65.20;37.10;;;;;;;9.87;54.92;100272.38;108340;1251;58851;-69
2024/03/01 02:36:29;;;;;;;60.20;34.40;;;;;;;10.23;53.58;100272.86;108356;1251;73110;-70
2024/03/01 02:39:47;;;;;;;57.80;35.10;;;;;;;10.34;53.19;100268.16;107979;1251;69761;-70
2024/03/01 02:42:53;;;;;;;57.00;35.10;;;;;;;10.23;53.50;100271.48;108348;1251;73126;-69
2024/03/01 02:45:40;;;;;;;64.60;35.10;;;;;;;10.20;53.73;100266.69;108352;1251;60733;-69
2024/03/01 02:48:52;;;;;;;62.20;36.20;;;;;;;10.18;53.64;100269.71;108395;1251;60664;-68
2024/03/01 02:51:26;;;;;;;70.80;39.00;;;;;;;10.00;53.87;100277.43;108337;1251;74415;-68
2024/03/01 02:54:39;;;;;;;63.80;37.80;;;;;;;9.75;54.69;100279.23;108272;1253;69111;-69
2024/03/01 02:57:59;;;;;;;73.20;38.10;;;;;;;9.91;54.84;100274.54;108324;1254;73020;-70
2024/03/01 03:01:16;;;;;;;66.50;37.70;;;;;;;10.07;53.86;100274.05;108111;1251;61157;-68
2024/03/01 03:04:35;;;;;;;63.00;36.20;;;;;;;10.01;54.01;100268.13;108366;1255;59707;-69
2024/03/01 03:07:54;;;;;;;63.90;35.50;;;;;;;10.34;52.90;100258.20;108393;1251;73633;-69
2024/03/01 03:11:14;;;;;;;59.80;33.50;;;;;;;10.38;52.69;100254.02;108306;1253;69672;-65
2024/03/01 03:14:34;;;;;;;56.40;32.70;;;;;;;9.88;54.14;100257.84;108004;1251;72511;-67
2024/03/01 03:17:53;;;;;;;61.70;34.60;;;;;;;9.48;55.78;100258.48;107971;1252;60619;-66
2024/03/01 03:20:28;;;;;;;51.20;32.30;;;;;;;9.46;56.08;100251.19;108348;1254;59636;-66
2024/03/01 03:23:40;;;;;;;55.00;33.30;;;;;;;9.40;56.22;100246.46;108392;1251;73613;-66
2024/03/01 03:27:00;;;;;;;53.10;32.30;;;;;;;9.40;56.79;100241.91;108224;1251;69309;-71
2024/03/01 03:30:19;;;;;;;57.70;33.30;;;;;;;9.47;56.36;100244.13;108368;1254;71910;-70
2024/03/01 03:33:03;;;;;;;54.70;31.60;;;;;;;9.37;56.81;100245.83;108475;1253;60982;-71
2024/03/01 03:35:58;;;;;;;;;;;;;;;9.32;57.26;100247.20;108408;1252;59767;-69
2024/03/01 03:39:20;;;;;;;56.90;32.90;;;;;;;9.29;57.22;100248.34;108214;1254;72511;-69
2024/03/01 03:42:32;;;;;;;56.50;33.60;;;;;;;9.31;56.94;100247.75;108375;1251;70145;-69
2024/03/01 03:45:50;;;;;;;49.20;32.30;;;;;;;9.37;56.97;100254.07;108319;1254;71438;-70
2024/03/01 03:49:09;;;;;;;52.90;31.20;;;;;;;9.42;56.70;100254.80;108381;1254;60616;-70
2024/03/01 03:52:28;;;;;;;57.30;34.50;;;;;;;9.42;56.48;100254.96;108371;1251;59035;-70
2024/03/01 03:55:47;;;;;;;46.60;31.10;;;;;;;9.40;56.85;100256.77;108358;1254;74616;-69
2024/03/01 03:59:10;;;;;;;54.40;31.70;;;;;;;9.37;56.79;100257.57;108303;1251;69324;-69
2024/03/01 04:02:09;;;;;;;51.60;31.80;;;;;;;9.35;56.76;100253.94;108008;1251;73393;-70
2024/03/01 04:05:22;;;;;;;49.10;31.80;;;;;;;9.35;56.50;100252.20;108361;1251;61026;-70
2024/03/01 04:08:43;;;;;;;55.10;31.30;;;;;;;9.34;56.63;100250.48;108369;1252;60162;-69
2024/03/01 04:12:05;;;;;;;54.70;32.90;;;;;;;9.18;56.89;100247.76;108406;1251;73115;-69
2024/03/01 04:15:20;;;;;;;54.50;31.70;;;;;;;8.96;57.88;100259.02;108280;1251;69370;-69
2024/03/01 04:18:39;;;;;;;50.50;31.20;;;;;;;8.93;58.24;100257.84;108387;1254;72354;-70
2024/03/01 04:21:14;;;;;;;48.20;29.60;;;;;;;8.93;58.40;100255.42;108080;1258;61873;-70
2024/03/01 04:24:27;;;;;;;46.50;32.00;;;;;;;9.63;55.39;100248.94;108321;1251;59988;-70
2024/03/01 04:27:08;;;;;;;50.10;30.10;;;;;;;9.54;54.04;100257.95;108183;1251;74245;-69
2024/03/01 04:30:20;;;;;;;51.70;30.60;;;;;;;8.83;56.65;100263.73;107801;1251;69204;-69
2024/03/01 04:33:39;;;;;;;39.80;27.50;;;;;;;8.85;57.63;100262.79;108302;1254;71334;-68
2024/03/01 04:36:58;;;;;;;39.90;24.40;;;;;;;9.15;57.64;100263.56;108335;1251;59758;-68
2024/03/01 04:40:16;;;;;;;36.00;23.40;;;;;;;9.12;57.48;100261.91;108332;1251;60125;-68
2024/03/01 04:43:35;;;;;;;36.40;24.40;;;;;;;8.88;58.07;100260.63;108347;1251;72553;-68
2024/03/01 04:46:56;;;;;;;39.60;24.20;;;;;;;8.63;59.53;100263.01;108303;1251;69670;-68
2024/03/01 04:50:15;;;;;;;42.50;23.20;;;;;;;8.78;60.10;100265.08;108357;1251;72422;-68
2024/03/01 04:53:34;;;;;;;30.30;21.00;;;;;;;8.94;59.22;100270.41;108052;1251;60597;-68
2024/03/01 04:56:53;;;;;;;30.50;21.20;;;;;;;9.12;58.39;100266.10;108337;1251;59917;-68
2024/03/01 05:00:12;;;;;;;34.50;19.40;;;;;;;9.08;58.58;100266.38;108363;1251;74052;-69
2024/03/01 05:03:36;;;;;;;33.40;21.00;;;;;;;9.07;58.44;100272.72;108360;1251;69157;-69
2024/03/01 05:06:53;;;;;;;29.80;21.00;;;;;;;9.04;58.75;100277.85;108349;1251;72908;-68
2024/03/01 05:10:11;;;;;;;29.80;19.80;;;;;;;9.04;59.44;100280.65;107935;1251;60718;-69
2024/03/01 05:13:30;;;;;;;33.70;21.30;;;;;;;9.12;59.39;100278.15;108332;1251;59639;-68
2024/03/01 05:16:51;;;;;;;39.30;21.90;;;;;;;9.19;58.92;100284.45;108173;1251;74577;-68
2024/03/01 05:20:14;;;;;;;35.40;20.90;;;;;;;9.20;58.51;100285.84;108329;1251;69197;-68
2024/03/01 05:22:57;;;;;;;41.50;23.50;;;;;;;9.21;58.53;100290.52;108363;1254;72458;-68
2024/03/01 05:26:10;;;;;;;35.40;23.30;;;;;;;9.28;57.75;100298.23;108322;1253;60567;-68
2024/03/01 05:29:32;;;;;;;40.30;23.90;;;;;;;9.22;57.77;100298.37;108036;1254;58557;-68
2024/03/01 05:32:50;;;;;;;38.30;24.20;;;;;;;9.22;58.05;100305.02;108368;1253;73842;-69
2024/03/01 05:35:46;;;;;;;39.90;23.50;;;;;;;9.24;58.00;100308.65;108394;1252;69385;-69
2024/03/01 05:38:58;;;;;;;38.50;25.40;;;;;;;9.24;57.61;100312.33;108426;1251;74099;-69
2024/03/01 05:42:20;;;;;;;43.50;25.30;;;;;;;9.22;58.20;100320.77;108387;1251;61485;-68
2024/03/01 05:45:32;;;;;;;42.10;25.90;;;;;;;9.22;58.07;100322.70;108349;1253;59712;-67
2024/03/01 05:48:34;;;;;;;36.70;24.10;;;;;;;9.24;57.76;100326.31;108419;1253;72663;-67
2024/03/01 05:51:45;;;;;;;35.50;24.10;;;;;;;9.14;58.22;100324.13;108393;1253;70073;-66
2024/03/01 05:58:48;;;;;;;43.40;25.90;;;;;;;9.29;58.52;100319.70;102499;1283;603605;-67
2024/03/01 06:02:05;;;;;;;40.50;26.60;;;;;;;9.16;58.45;100324.77;103493;1281;61014;-71
2024/03/01 06:05:24;;;;;;;39.20;24.80;;;;;;;9.17;58.91;100317.93;103927;1272;59954;-68
2024/03/01 06:08:43;;;;;;;38.70;24.80;;;;;;;9.14;58.78;100315.02;103540;1272;72196;-62
2024/03/01 06:12:10;;;;;;;40.00;25.50;;;;;;;9.19;58.83;100318.58;103510;1267;1093905;-62
2024/03/01 06:14:54;;;;;;;42.10;24.50;;;;;;;9.35;58.51;100323.05;104217;1266;72917;-63
2024/03/01 06:17:22;;;;;;;41.20;24.90;;;;;;;9.42;58.08;100325.65;104340;1266;59853;-65
2024/03/01 06:20:35;;;;;;;37.60;24.60;;;;;;;9.40;58.17;100323.10;104155;1272;59688;-64
2024/03/01 06:23:57;;;;;;;37.00;23.90;;;;;;;9.46;58.08;100322.59;104756;1267;72283;-63
2024/03/01 07:03:08;;;;;;;38.40;24.20;;;;;;;10.03;57.21;100356.34;103981;1277;59628;-68
2024/03/01 07:43:42;;;;;;;34.60;23.00;;;;;;;11.60;54.01;100356.21;103801;1269;74063;-66
2024/03/01 09:10:33;;;;;;;35.60;19.70;;;;;;;14.71;45.04;100310.95;103568;1267;72429;-63
2024/03/01 09:13:03;;;;;;;33.20;18.00;;;;;;;14.99;44.71;100314.15;103667;1269;61438;-64
2024/03/01 09:15:50;;;;;;;30.20;17.90;;;;;;;15.09;44.45;100312.57;103680;1270;61698;-63
2024/03/01 09:18:49;;;;;;;32.40;17.40;;;;;;;15.18;43.61;100308.06;103684;1272;74459;-64
2024/03/01 09:21:41;;;;;;;27.90;18.40;;;;;;;15.31;43.57;100304.71;104187;1270;69240;-63
2024/03/01 09:25:05;;;;;;;28.80;17.20;;;;;;;15.42;42.63;100303.30;104665;1264;73968;-66
2024/03/01 09:27:34;;;;;;;26.40;18.10;;;;;;;15.55;42.00;100298.70;104272;1267;60790;-64
2024/03/01 09:30:50;;;;;;;26.30;16.50;;;;;;;15.55;42.09;100306.14;104411;1268;60007;-63
2024/03/01 09:33:30;;;;;;;27.00;17.40;;;;;;;15.66;41.19;100301.52;103799;1265;72097;-66
2024/03/01 09:35:59;;;;;;;24.40;16.30;;;;;;;15.65;41.35;100303.31;103689;1266;68550;-65
2024/03/01 09:38:54;;;;;;;25.20;16.70;;;;;;;15.54;41.27;100303.69;104675;1265;71147;-66
2024/03/01 09:41:51;;;;;;;22.60;16.20;;;;;;;15.54;41.52;100299.44;103733;1263;60838;-66
2024/03/01 09:45:10;;;;;;;29.80;17.00;;;;;;;15.47;41.16;100292.92;103480;1275;59665;-65
2024/03/01 09:48:16;;;;;;;27.50;16.20;;;;;;;15.75;40.78;100297.34;103677;1266;72663;-67
2024/03/01 09:51:01;;;;;;;29.70;16.30;;;;;;;15.74;40.40;100298.42;103998;1269;69716;-66
2024/03/01 09:53:48;;;;;;;25.80;15.50;;;;;;;15.79;40.26;100297.98;104737;1265;72541;-65
2024/03/01 09:56:55;;;;;;;23.60;14.80;;;;;;;15.75;40.14;100293.79;103981;1275;60988;-64
2024/03/01 09:59:56;;;;;;;22.80;14.70;;;;;;;15.83;40.25;100294.44;104217;1269;60106;-68
2024/03/01 10:02:50;;;;;;;24.60;14.90;;;;;;;15.75;40.40;100292.02;104141;1266;72979;-65
2024/03/01 10:05:57;;;;;;;21.90;14.50;;;;;;;15.74;40.04;100294.73;104189;1263;68695;-66
2024/03/01 10:09:12;;;;;;;22.20;14.30;;;;;;;15.81;39.70;100290.98;104088;1271;72817;-65
2024/03/01 10:12:18;;;;;;;20.40;13.40;;;;;;;15.93;39.01;100286.81;104392;1259;59713;-66
2024/03/01 10:15:01;;;;;;;23.10;12.80;;;;;;;16.00;38.98;100282.89;104836;1259;60354;-67
2024/03/01 10:18:25;;;;;;;22.50;12.90;;;;;;;16.10;38.62;100283.21;103938;1259;71090;-65
2024/03/01 10:21:15;;;;;;;21.50;11.70;;;;;;;16.10;38.94;100287.95;104523;1258;70567;-62
2024/03/01 10:24:40;;;;;;;16.10;11.60;;;;;;;16.21;38.02;100283.30;104183;1262;74074;-65
2024/03/01 10:27:38;;;;;;;18.20;12.30;;;;;;;16.26;37.51;100276.99;104659;1260;60769;-64
2024/03/01 10:30:47;;;;;;;16.60;11.60;;;;;;;16.32;37.65;100281.23;103984;1258;61362;-64
2024/03/01 10:33:57;;;;;;;20.80;12.80;;;;;;;16.34;37.40;100281.14;104404;1274;72885;-65
2024/03/01 10:37:14;;;;;;;16.80;11.40;;;;;;;16.56;36.98;100272.52;103630;1264;69842;-64
2024/03/01 10:39:42;;;;;;;24.40;11.50;;;;;;;16.57;37.28;100270.69;103488;1273;75972;-64
2024/03/01 10:43:09;;;;;;;18.80;11.80;;;;;;;16.56;37.32;100272.85;104504;1256;61874;-64
2024/03/01 10:46:15;;;;;;;18.10;10.60;;;;;;;16.47;37.02;100271.38;104319;1258;60672;-63
2024/03/01 10:49:22;;;;;;;18.50;11.10;;;;;;;16.59;36.97;100264.67;104724;1258;73465;-64
2024/03/01 10:52:08;;;;;;;19.80;10.50;;;;;;;16.71;36.73;100260.98;104296;1265;69448;-64
2024/03/01 10:54:51;;;;;;;17.00;9.70;;;;;;;16.67;36.35;100258.61;104566;1258;71494;-64
2024/03/01 10:57:19;;;;;;;17.50;9.90;;;;;;;16.86;36.49;100262.26;104782;1255;60441;-64
2024/03/01 11:00:12;;;;;;;19.40;9.80;;;;;;;16.90;35.69;100255.13;105035;1255;61712;-64
2024/03/01 11:02:41;;;;;;;16.60;9.90;;;;;;;16.89;35.87;100254.83;104074;1256;75313;-65
2024/03/01 11:06:05;;;;;;;15.60;9.60;;;;;;;16.97;35.57;100256.34;104075;1256;70830;-65
2024/03/01 11:08:58;;;;;;;17.60;9.50;;;;;;;17.04;35.28;100245.98;104629;1258;73399;-62
2024/03/01 11:11:51;;;;;;;18.10;10.60;;;;;;;17.13;35.46;100241.71;104945;1259;60434;-62
2024/03/01 11:14:32;;;;;;;17.40;10.20;;;;;;;17.11;35.26;100241.48;104519;1261;62924;-63
2024/03/01 11:17:18;;;;;;;20.60;9.90;;;;;;;17.15;35.03;100240.88;104971;1260;74580;-64
2024/03/01 11:19:47;;;;;;;17.40;10.80;;;;;;;16.89;35.38;100241.71;104150;1261;70041;-62
2024/03/01 11:22:19;;;;;;;21.70;10.70;;;;;;;16.70;35.70;100236.06;104785;1261;73588;-63
2024/03/01 11:25:43;;;;;;;16.70;10.00;;;;;;;17.01;35.04;100230.23;104192;1260;60611;-63
2024/03/01 11:28:57;;;;;;;20.40;10.40;;;;;;;17.22;34.90;100231.63;104887;1257;59809;-63
2024/03/01 11:32:04;;;;;;;23.30;10.50;;;;;;;17.27;34.85;100228.64;104474;1255;73142;-63
2024/03/01 11:34:36;;;;;;;;;;;;;;;17.39;34.85;100223.29;104617;1267;69954;-62
2024/03/01 11:37:57;;;;;;;20.30;10.70;;;;;;;17.53;34.73;100217.30;104013;1269;73101;-63
2024/03/01 11:40:51;;;;;;;20.90;12.10;;;;;;;17.58;34.68;100211.12;104720;1258;61731;-64
2024/03/01 11:44:13;;;;;;;19.90;11.50;;;;;;;17.73;34.18;100213.41;104175;1257;60466;-63
2024/03/01 11:47:22;;;;;;;15.70;10.80;;;;;;;17.70;34.38;100212.49;104573;1256;73722;-63
2024/03/01 11:49:59;;;;;;;18.00;11.70;;;;;;;17.81;34.24;100209.14;104734;1260;70260;-64
2024/03/01 11:53:24;;;;;;;17.80;11.60;;;;;;;17.83;34.02;100206.89;104996;1256;72591;-64
2024/03/01 11:56:29;;;;;;;21.40;12.20;;;;;;;17.92;33.89;100204.38;104254;1272;60844;-64
2024/03/01 11:59:45;;;;;;;16.30;10.50;;;;;;;18.02;33.81;100199.29;104778;1257;59957;-63
2024/03/01 12:02:25;;;;;;;18.60;11.10;;;;;;;18.00;33.36;100196.44;104069;1258;71874;-64
2024/03/01 12:05:35;;;;;;;17.10;10.80;;;;;;;18.21;33.20;100193.61;104739;1259;69899;-64
2024/03/01 12:09:08;;;;;;;19.10;10.40;;;;;;;18.11;33.47;100197.82;104297;1261;71952;-64
2024/03/01 12:12:09;;;;;;;15.00;9.50;;;;;;;18.12;33.08;100192.28;104584;1257;60116;-65
2024/03/01 12:15:39;;;;;;;13.40;9.20;;;;;;;18.17;33.33;100180.25;104078;1259;59760;-63
2024/03/01 12:18:51;;;;;;;13.80;9.40;;;;;;;18.20;32.99;100173.30;104347;1261;75353;-63
2024/03/01 12:22:03;;;;;;;14.40;10.00;;;;;;;18.19;33.18;100175.31;104898;1259;71340;-62
2024/03/01 12:24:37;;;;;;;14.20;9.90;;;;;;;18.21;33.00;100181.77;104455;1257;73168;-62
2024/03/01 12:27:25;;;;;;;17.80;10.20;;;;;;;18.15;33.06;100187.11;104419;1259;59766;-62
2024/03/01 12:30:49;;;;;;;16.30;9.80;;;;;;;18.09;33.24;100190.86;104423;1257;60904;-62
2024/03/01 12:33:48;;;;;;;13.20;9.80;;;;;;;18.10;33.27;100186.76;104569;1258;74207;-62
2024/03/01 12:37:09;;;;;;;12.90;9.30;;;;;;;18.05;33.12;100185.81;104218;1274;69342;-64
2024/03/01 12:40:18;;;;;;;18.10;9.90;;;;;;;18.05;33.32;100174.98;104378;1257;72810;-66
2024/03/01 12:43:04;;;;;;;18.70;10.20;;;;;;;18.00;33.43;100172.11;105405;1260;60358;-64
2024/03/01 12:46:34;;;;;;;18.70;10.40;;;;;;;17.99;33.42;100166.36;104426;1257;59736;-65
2024/03/01 12:49:41;;;;;;;16.70;9.90;;;;;;;17.94;33.50;100164.17;104170;1260;72898;-66
2024/03/01 12:52:33;;;;;;;19.00;9.90;;;;;;;17.95;33.37;100162.69;104804;1255;69867;-65
2024/03/01 12:55:46;;;;;;;14.80;8.50;;;;;;;18.02;33.33;100163.48;104827;1259;75843;-64
2024/03/01 12:58:53;;;;;;;12.80;8.60;;;;;;;18.07;33.41;100160.34;104921;1258;59684;-65
2024/03/01 13:02:05;;;;;;;16.20;9.10;;;;;;;18.04;33.51;100163.88;104717;1262;59766;-64
2024/03/01 13:05:17;;;;;;;16.90;8.10;;;;;;;17.99;33.78;100167.56;104684;1258;73251;-63
2024/03/01 13:07:53;;;;;;;12.10;8.10;;;;;;;17.98;33.98;100164.66;104645;1259;69563;-65
2024/03/01 13:10:44;;;;;;;19.50;9.70;;;;;;;17.92;33.85;100158.33;104766;1258;72717;-65
2024/03/01 13:13:36;;;;;;;17.20;8.70;;;;;;;17.91;33.68;100155.68;105145;1256;60043;-65
2024/03/01 13:17:12;;;;;;;14.90;7.90;;;;;;;17.95;33.87;100156.48;104577;1253;59969;-66
2024/03/01 13:20:39;;;;;;;14.80;7.80;;;;;;;17.89;33.68;100155.27;104886;1254;72133;-64
2024/03/01 13:23:50;;;;;;;12.00;7.90;;;;;;;17.87;33.66;100159.33;105662;1253;70311;-64
2024/03/01 13:26:32;;;;;;;9.50;7.30;;;;;;;17.81;33.84;100160.77;104722;1258;73470;-62
2024/03/01 13:29:36;;;;;;;17.00;9.70;;;;;;;17.84;33.79;100162.85;104699;1253;61061;-62
2024/03/01 13:32:40;;;;;;;21.20;11.00;;;;;;;17.84;33.64;100161.59;104754;1262;59848;-62
2024/03/01 13:35:17;;;;;;;12.60;10.00;;;;;;;17.87;33.45;100161.30;104598;1254;72835;-63
2024/03/01 13:38:16;;;;;;;58.20;31.00;;;;;;;17.85;33.38;100160.00;104985;1258;70532;-64
2024/03/01 13:41:08;;;;;;;26.90;15.20;;;;;;;17.88;33.39;100164.23;105908;1254;72505;-62
2024/03/01 13:43:37;;;;;;;22.70;13.30;;;;;;;17.89;33.54;100162.20;105407;1258;59747;-61
2024/03/01 13:46:29;;;;;;;16.50;11.90;;;;;;;17.91;33.41;100157.30;104576;1253;60545;-62
2024/03/01 13:49:24;;;;;;;31.10;16.70;;;;;;;17.84;33.41;100161.41;104737;1258;77090;-61
2024/03/01 13:53:05;;;;;;;18.90;11.30;;;;;;;17.80;33.63;100156.73;105426;1254;73081;-64
2024/03/01 13:55:41;;;;;;;18.80;10.80;;;;;;;17.77;33.55;100151.77;106244;1255;71543;-63
2024/03/01 13:59:10;;;;;;;18.60;11.90;;;;;;;17.76;33.58;100148.98;105755;1255;60851;-61
2024/03/01 14:01:50;;;;;;;19.90;11.40;;;;;;;17.75;33.61;100153.68;104653;1260;60533;-64
2024/03/01 14:05:30;;;;;;;20.90;11.30;;;;;;;17.74;33.50;100153.24;104658;1257;73667;-63
2024/03/01 14:08:46;;;;;;;22.60;11.70;;;;;;;17.67;33.45;100161.64;104937;1258;70132;-60
2024/03/01 14:11:20;;;;;;;17.50;11.40;;;;;;;17.59;33.37;100158.79;105251;1254;72811;-61
2024/03/01 14:14:25;;;;;;;17.00;11.70;;;;;;;17.56;33.31;100155.27;104860;1255;63548;-61
2024/03/01 14:17:19;;;;;;;16.80;10.70;;;;;;;17.49;33.51;100148.95;105083;1258;60404;-60
2024/03/01 14:20:42;;;;;;;18.60;11.40;;;;;;;17.42;33.63;100151.33;105330;1257;76235;-60
2024/03/01 14:23:16;;;;;;;21.50;10.90;;;;;;;17.37;33.55;100152.89;104618;1253;70109;-61
2024/03/01 14:26:20;;;;;;;14.60;10.50;;;;;;;17.30;33.45;100156.67;104340;1257;74007;-61
2024/03/01 14:29:05;;;;;;;19.70;10.80;;;;;;;17.23;33.66;100156.78;104676;1253;60634;-62
2024/03/01 14:32:02;;;;;;;17.00;10.30;;;;;;;17.16;33.77;100162.23;104871;1257;60665;-63
2024/03/01 14:35:29;;;;;;;21.80;10.60;;;;;;;17.08;33.87;100163.89;105788;1260;73087;-63
2024/03/01 14:38:59;;;;;;;15.50;9.80;;;;;;;16.99;33.81;100157.39;104486;1266;69877;-63
2024/03/01 14:41:36;;;;;;;19.70;11.00;;;;;;;16.91;33.91;100155.40;104855;1256;73323;-64
2024/03/01 14:44:24;;;;;;;17.80;10.90;;;;;;;16.83;33.89;100153.18;104902;1253;60359;-64
2024/03/01 14:47:46;;;;;;;21.20;11.30;;;;;;;16.78;34.03;100156.85;104278;1260;60633;-63
2024/03/01 14:50:56;;;;;;;18.70;10.90;;;;;;;16.73;33.93;100155.02;104591;1258;75146;-63
2024/03/01 14:54:05;;;;;;;20.80;11.00;;;;;;;16.64;34.27;100154.51;104851;1253;70465;-63
2024/03/01 14:56:40;;;;;;;17.30;9.80;;;;;;;16.61;34.21;100155.05;104497;1256;72751;-62
2024/03/01 14:59:08;;;;;;;18.40;11.40;;;;;;;16.59;34.25;100157.80;104451;1258;60571;-63
2024/03/01 15:02:32;;;;;;;16.90;10.40;;;;;;;16.52;34.31;100163.15;105608;1258;59312;-64
2024/03/01 15:05:23;;;;;;;13.70;10.20;;;;;;;16.47;34.37;100158.16;104677;1274;73664;-63
2024/03/01 15:08:30;;;;;;;20.40;11.80;;;;;;;16.39;34.34;100155.12;104367;1265;70712;-63
2024/03/01 15:11:35;;;;;;;19.70;12.00;;;;;;;16.27;34.49;100158.48;104501;1253;73980;-63
2024/03/01 15:14:54;;;;;;;26.30;13.70;;;;;;;16.18;34.78;100160.22;105084;1258;60528;-63
2024/03/01 15:17:31;;;;;;;19.30;13.10;;;;;;;16.06;34.91;100161.09;105254;1253;60515;-63
2024/03/01 15:20:39;;;;;;;21.80;12.80;;;;;;;15.98;34.97;100154.30;104328;1253;73422;-64
2024/03/01 15:24:03;;;;;;;21.70;13.40;;;;;;;15.90;35.15;100154.02;104583;1259;70581;-64
2024/03/01 15:26:48;;;;;;;24.70;14.20;;;;;;;15.77;35.44;100153.02;104533;1274;73664;-62
2024/03/01 15:29:52;;;;;;;22.40;13.90;;;;;;;15.67;35.55;100154.60;104665;1259;61071;-63
2024/03/01 15:33:34;;;;;;;19.50;12.60;;;;;;;15.60;35.57;100149.14;104462;1254;63837;-66
2024/03/01 15:36:03;;;;;;;20.30;13.50;;;;;;;15.43;35.74;100149.38;105037;1255;74841;-63
2024/03/01 15:39:27;;;;;;;26.20;13.80;;;;;;;15.36;35.90;100149.92;104323;1258;69777;-62
2024/03/01 15:42:01;;;;;;;23.60;15.50;;;;;;;15.23;36.20;100148.33;104388;1259;72513;-61
2024/03/01 15:45:43;;;;;;;24.40;14.60;;;;;;;15.14;36.42;100150.41;104684;1257;60840;-61
2024/03/01 15:48:57;;;;;;;22.00;14.50;;;;;;;15.08;36.49;100155.83;104489;1259;61397;-63
2024/03/01 15:51:31;;;;;;;22.70;13.90;;;;;;;15.03;36.52;100158.76;104921;1256;74334;-63
2024/03/01 15:54:35;;;;;;;28.80;15.00;;;;;;;14.94;36.77;100153.20;104613;1272;70225;-63
2024/03/01 15:57:38;;;;;;;28.90;14.70;;;;;;;14.91;36.72;100155.17;106614;1254;73995;-63
2024/03/01 16:00:51;;;;;;;29.40;14.20;;;;;;;14.76;37.01;100154.50;105157;1254;60462;-64
2024/03/01 16:03:39;;;;;;;26.00;15.30;;;;;;;15.70;35.49;100157.94;105257;1255;60610;-62
2024/03/01 16:06:44;;;;;;;26.70;14.60;;;;;;;15.46;35.89;100162.42;106268;1256;74186;-64
2024/03/01 16:09:56;;;;;;;27.30;16.40;;;;;;;15.67;35.52;100163.63;104510;1258;68231;-62
2024/03/01 16:13:08;;;;;;;25.00;15.10;;;;;;;15.65;35.46;100162.64;104805;1258;72809;-64
2024/03/01 16:15:43;;;;;;;25.10;15.10;;;;;;;15.56;35.56;100162.61;104675;1262;60566;-63
2024/03/01 16:18:28;;;;;;;39.60;19.30;;;;;;;15.55;35.39;100167.05;105189;1258;60564;-64
2024/03/01 16:21:19;;;;;;;49.70;23.50;;;;;;;15.50;35.42;100178.15;104419;1259;73970;-64
2024/03/01 16:24:54;;;;;;;49.10;26.40;;;;;;;14.73;36.58;100186.38;104537;1254;68086;-64
2024/03/01 16:27:28;;;;;;;58.70;29.00;;;;;;;14.08;37.72;100192.46;104981;1256;71722;-61
2024/03/01 16:30:29;;;;;;;54.20;27.10;;;;;;;13.75;38.31;100193.33;106024;1253;60485;-67
2024/03/01 16:33:55;;;;;;;49.20;24.60;;;;;;;13.68;38.51;100191.04;105249;1256;61402;-62
2024/03/01 16:37:07;;;;;;;37.80;21.20;;;;;;;13.55;38.72;100196.02;104562;1258;75278;-63
2024/03/01 16:40:21;;;;;;;32.70;18.80;;;;;;;13.38;39.23;100197.33;104338;1258;70520;-63